»·PEaware :: N227SB KSAN-KSBA

N227SB :: KSAN-KSBA

FLIGHT INFORMATION

Flight Status: Arrived
Operator: Privately registered:
United States
More flights under this callsign
Pilot: Dean S. (16265)
Aircraft: Unknown
(DA40)
More flights by this aircraft type
Origin: KSAN San Diego Intl-Lindbergh
United States
Destination: KSBA Santa Barbara Mun
United States
More flights between these airports :: More routes between these airports
Route: +HURSI DANAH OHIGH /
File this flight plan on PilotEdge
Remarks:
Altitude:
(Current/Filed)
10,500ft
Speed:
(Current/Filed)
140kts
Departed: 05-May-18 12:18 PM
Arrived: 05-May-18 01:44 PM
Distance/Time
Traveled:
167nm/1:26
Distance/Time
To Go:
Arrived

Flight Plot

Page will automatically refresh every two minutes.

Flight plan parsing failed; only flown route is shown


Map Options




Map Legend


Flown Route
Filed Route
Departure Airport
Arrival Airport
Navaid (VOR, NDB)
Fix

Horizontal Profiles

Position Reports

Time Latitude Longitude Heading Altitude Ground
Speed
05-May-18 12:07 32.734278 -117.184970 196 18ft 0kts
05-May-18 12:08 32.734278 -117.184970 196 18ft 0kts
05-May-18 12:09 32.734278 -117.184970 196 18ft 0kts
05-May-18 12:10 32.734278 -117.184970 196 18ft 0kts
05-May-18 12:11 32.734278 -117.184970 196 18ft 0kts
05-May-18 12:12 32.733625 -117.185241 262 18ft 6kts
05-May-18 12:13 32.732799 -117.181798 105 18ft 16kts
05-May-18 12:14 32.731515 -117.176490 105 18ft 11kts
05-May-18 12:15 32.731022 -117.175570 145 18ft 0kts
05-May-18 12:16 32.730226 -117.175524 257 18ft 10kts
05-May-18 12:17 32.734431 -117.193230 286 566ft 76kts
05-May-18 12:18 32.750748 -117.210773 322 1648ft 82kts
05-May-18 12:19 32.775924 -117.233849 322 2180ft 126kts
05-May-18 12:20 32.799974 -117.255899 322 3489ft 103kts
05-May-18 12:21 32.822344 -117.276413 322 4625ft 101kts
05-May-18 12:22 32.845467 -117.296235 331 5666ft 103kts
05-May-18 12:23 32.870750 -117.312022 332 6624ft 105kts
05-May-18 12:24 32.896878 -117.328308 332 7527ft 105kts
05-May-18 12:25 32.923885 -117.344674 344 8203ft 120kts
05-May-18 12:26 32.966220 -117.339522 7 7393ft 159kts
05-May-18 12:27 33.007322 -117.334827 3 7373ft 141kts
05-May-18 12:29 33.046259 -117.334815 350 7375ft 140kts
05-May-18 12:30 33.083429 -117.348518 339 7375ft 140kts
05-May-18 12:31 33.119965 -117.365068 338 7375ft 140kts
05-May-18 12:32 33.156379 -117.381677 338 7371ft 140kts
05-May-18 12:33 33.189310 -117.405261 316 7372ft 140kts
05-May-18 12:34 33.215959 -117.433302 319 8034ft 98kts
05-May-18 12:35 33.231887 -117.449257 319 8646ft 77kts
05-May-18 12:36 33.252091 -117.469404 319 9064ft 101kts
05-May-18 12:37 33.274294 -117.491545 319 9579ft 106kts
05-May-18 12:38 33.297114 -117.514313 319 10082ft 106kts
05-May-18 12:39 33.320638 -117.537802 319 10400ft 120kts
05-May-18 12:40 33.347364 -117.564520 319 10511ft 130kts
05-May-18 12:41 33.375913 -117.593079 319 10508ft 135kts
05-May-18 12:42 33.404934 -117.622130 319 10505ft 136kts
05-May-18 12:43 33.434106 -117.651355 319 10508ft 137kts
05-May-18 12:44 33.463283 -117.680608 319 10509ft 137kts
05-May-18 12:45 33.490686 -117.712099 303 10511ft 136kts
05-May-18 12:46 33.512061 -117.749826 305 10509ft 137kts
05-May-18 12:47 33.534318 -117.787046 305 10508ft 137kts
05-May-18 12:48 33.556583 -117.824095 305 10507ft 137kts
05-May-18 12:49 33.578840 -117.861154 305 10506ft 137kts
05-May-18 12:50 33.601164 -117.898361 305 10505ft 137kts
05-May-18 12:51 33.623396 -117.935453 305 10505ft 137kts
05-May-18 12:52 33.645621 -117.972569 305 10505ft 137kts
05-May-18 12:53 33.667900 -118.009814 305 10506ft 137kts
05-May-18 12:54 33.690107 -118.046977 305 10505ft 137kts
05-May-18 12:55 33.712377 -118.084282 305 10505ft 137kts
05-May-18 12:56 33.734560 -118.121480 305 10505ft 137kts
05-May-18 12:57 33.756732 -118.158699 305 10505ft 137kts
05-May-18 12:58 33.778960 -118.196047 305 10506ft 137kts
05-May-18 12:59 33.801100 -118.233287 305 10508ft 137kts
05-May-18 13:00 33.823212 -118.270517 305 10512ft 137kts
05-May-18 13:01 33.845400 -118.307915 305 10512ft 137kts
05-May-18 13:02 33.867497 -118.345196 305 10520ft 136kts
05-May-18 13:03 33.889558 -118.382455 305 10523ft 137kts
05-May-18 13:04 33.911908 -118.420050 305 10396ft 144kts
05-May-18 13:05 33.937294 -118.462805 305 9510ft 163kts
05-May-18 13:06 33.963961 -118.507979 305 8631ft 164kts
05-May-18 13:07 33.988360 -118.549382 305 8498ft 140kts
05-May-18 13:08 34.007316 -118.581582 305 9272ft 79kts
05-May-18 13:09 34.018558 -118.600687 305 9610ft 73kts
05-May-18 13:10 34.029140 -118.619557 304 10012ft 72kts
05-May-18 13:11 34.040088 -118.638231 305 10522ft 66kts
05-May-18 13:12 34.056180 -118.665632 305 10517ft 134kts
05-May-18 13:13 34.079047 -118.704611 305 10497ft 146kts
05-May-18 13:14 34.102770 -118.745088 305 10498ft 147kts
05-May-18 13:15 34.126534 -118.785681 305 10482ft 149kts
05-May-18 13:16 34.151158 -118.827793 305 10167ft 161kts
05-May-18 13:17 34.177470 -118.872854 304 9669ft 165kts
05-May-18 13:18 34.203959 -118.918269 304 9170ft 165kts
05-May-18 13:19 34.230477 -118.963789 304 8671ft 165kts
05-May-18 13:20 34.256316 -119.008192 304 8495ft 154kts
05-May-18 13:21 34.280532 -119.049845 304 8497ft 150kts
05-May-18 13:22 34.304483 -119.091098 304 8499ft 149kts
05-May-18 13:23 34.328464 -119.132453 304 8500ft 149kts
05-May-18 13:24 34.352343 -119.173680 304 8502ft 149kts
05-May-18 13:25 34.376291 -119.215069 304 8509ft 149kts
05-May-18 13:26 34.400119 -119.256297 304 8513ft 149kts
05-May-18 13:27 34.423956 -119.297581 304 8516ft 149kts
05-May-18 13:28 34.435051 -119.344630 280 8521ft 149kts
05-May-18 13:29 34.444121 -119.393769 283 8488ft 148kts
05-May-18 13:30 34.454620 -119.443765 285 7883ft 152kts
05-May-18 13:31 34.466695 -119.492276 287 7268ft 148kts
05-May-18 13:32 34.478699 -119.539600 285 6724ft 143kts
05-May-18 13:33 34.488986 -119.584188 285 6344ft 132kts
05-May-18 13:34 34.498332 -119.625804 282 5887ft 135kts
05-May-18 13:35 34.500941 -119.667801 266 5069ft 121kts
05-May-18 13:36 34.496570 -119.705580 251 4266ft 109kts
05-May-18 13:37 34.488646 -119.737808 255 3341ft 91kts
05-May-18 13:38 34.482485 -119.768212 256 2290ft 85kts
05-May-18 13:39 34.477994 -119.794780 258 1490ft 75kts
05-May-18 13:40 34.473966 -119.818084 258 1153ft 65kts
05-May-18 13:41 34.470117 -119.839140 256 1048ft 64kts
05-May-18 13:42 34.456650 -119.850686 159 723ft 79kts
05-May-18 13:43 34.437758 -119.842447 165 163ft 66kts
05-May-18 13:44 34.426707 -119.838780 103 13ft 5kts
05-May-18 13:45 34.425828 -119.838085 165 13ft 20kts
05-May-18 13:46 34.423249 -119.836016 351 13ft 0kts

Navigation Log

Ident Type
Flight plan parsing failed, navigation log unavailable